Terminal Aerodrome Forecast
Issued by NWS Cleveland, OH

Home | Current Version | Previous Version | Graphics & Text | Print | Product List | Glossary On
Versions: 1 2 3 4 5 6 7 8 9 10 11 12 13 14 15 16 17 18 19 20
000
FTUS41 KCLE 262300 RRA
TAFYNG
TAF
KYNG 262341Z 2700/2724 21005KT P6SM OVC250
     FM270900 19006KT P6SM OVC025
     FM271700 19009KT P6SM OVC070=

USA.gov is the U.S. government's official web portal to all federal, state and local government web resources and services.